createdAt,value
2023-10-19T00:00:56.948Z,14.48
2023-10-19T00:03:47.157Z,15.20
2023-10-19T00:06:34.373Z,14.43
2023-10-19T00:09:21.854Z,14.82
2023-10-19T00:12:11.153Z,14.88
2023-10-19T00:14:58.361Z,13.48
2023-10-19T00:17:46.380Z,14.95
2023-10-19T00:20:42.636Z,14.48
2023-10-19T00:23:33.557Z,14.52
2023-10-19T00:26:21.538Z,11.93
2023-10-19T00:29:31.483Z,11.60
2023-10-19T00:32:20.868Z,11.93
2023-10-19T00:35:31.419Z,12.07
2023-10-19T00:38:27.806Z,9.77
2023-10-19T00:41:20.808Z,9.13
2023-10-19T00:44:16.574Z,8.45
2023-10-19T00:47:13.499Z,10.95
2023-10-19T00:50:04.804Z,10.23
2023-10-19T00:52:52.212Z,8.75
2023-10-19T00:55:40.425Z,9.13
2023-10-19T00:58:31.511Z,9.43
2023-10-19T01:01:24.936Z,9.90
2023-10-19T01:04:16.649Z,9.35
2023-10-19T01:07:12.974Z,9.98
2023-10-19T01:10:06.868Z,10.80
2023-10-19T01:12:54.284Z,10.77
2023-10-19T01:15:42.214Z,9.35
2023-10-19T01:18:30.885Z,11.48
2023-10-19T01:21:22.209Z,9.82
2023-10-19T01:24:10.470Z,9.82
2023-10-19T01:26:58.089Z,13.00
2023-10-19T01:29:45.774Z,13.30
2023-10-19T01:32:33.051Z,9.75
2023-10-19T01:35:20.440Z,10.52
2023-10-19T01:38:09.124Z,9.98
2023-10-19T01:41:00.383Z,10.43
2023-10-19T01:43:50.482Z,9.88
2023-10-19T01:46:38.210Z,10.00
2023-10-19T01:49:29.377Z,10.68
2023-10-19T01:55:08.950Z,9.55
2023-10-19T01:57:56.221Z,12.90
2023-10-19T02:00:45.174Z,11.70
2023-10-19T02:03:33.748Z,9.05
2023-10-19T02:06:21.618Z,9.93
2023-10-19T02:09:19.630Z,11.93
2023-10-19T02:12:08.958Z,11.57
2023-10-19T02:14:56.135Z,16.58
2023-10-19T02:17:43.345Z,9.13
2023-10-19T02:20:40.423Z,12.88
2023-10-19T02:23:29.317Z,10.63
2023-10-19T02:26:18.113Z,11.63
2023-10-19T02:29:08.817Z,10.60
2023-10-19T02:31:57.535Z,12.63
2023-10-19T02:34:45.196Z,12.35
2023-10-19T02:37:32.547Z,13.40
2023-10-19T02:40:25.208Z,12.57
2023-10-19T02:43:12.698Z,11.20
2023-10-19T02:46:01.311Z,10.40
2023-10-19T02:48:51.129Z,11.02
2023-10-19T02:51:39.743Z,11.82
2023-10-19T02:54:29.067Z,10.90
2023-10-19T02:57:16.256Z,13.15
2023-10-19T03:00:11.695Z,16.83
2023-10-19T03:02:59.380Z,14.02
2023-10-19T03:05:47.696Z,14.43
2023-10-19T03:08:36.867Z,14.10
2023-10-19T03:11:28.572Z,15.27
2023-10-19T03:14:17.636Z,13.00
2023-10-19T03:17:06.617Z,10.90
2023-10-19T03:19:54.013Z,14.98
2023-10-19T03:22:41.611Z,11.63
2023-10-19T03:25:48.371Z,11.68
2023-10-19T03:28:36.740Z,15.88
2023-10-19T03:31:27.947Z,12.68
2023-10-19T03:34:18.069Z,12.57
2023-10-19T03:37:13.465Z,13.13
2023-10-19T03:40:05.263Z,10.27
2023-10-19T03:42:55.805Z,12.93
2023-10-19T03:45:48.247Z,10.52
2023-10-19T03:48:39.445Z,11.32
2023-10-19T03:51:27.813Z,12.40
2023-10-19T03:54:24.144Z,9.68
2023-10-19T03:57:14.343Z,9.60
2023-10-19T04:00:01.717Z,8.82
2023-10-19T04:02:49.404Z,12.27
2023-10-19T04:05:39.653Z,10.10
2023-10-19T04:08:28.139Z,8.00
2023-10-19T04:11:22.894Z,9.30
2023-10-19T04:14:10.661Z,11.68
2023-10-19T04:16:58.306Z,12.27
2023-10-19T04:19:45.772Z,8.02
2023-10-19T04:22:33.237Z,10.88
2023-10-19T04:25:21.509Z,10.02
2023-10-19T04:28:10.474Z,9.43
2023-10-19T04:31:04.107Z,11.40
2023-10-19T04:33:51.702Z,11.70
2023-10-19T04:36:40.967Z,11.38
2023-10-19T04:39:31.387Z,11.82
2023-10-19T04:42:20.723Z,8.80
2023-10-19T04:45:08.181Z,14.68
2023-10-19T04:47:56.599Z,11.45
2023-10-19T04:50:43.907Z,10.98
2023-10-19T04:53:33.342Z,11.43
2023-10-19T04:56:20.791Z,13.65
2023-10-19T04:59:08.126Z,11.95
2023-10-19T05:01:59.598Z,11.80
2023-10-19T05:04:48.678Z,10.63
2023-10-19T05:07:36.318Z,11.57
2023-10-19T05:10:23.764Z,12.27
2023-10-19T05:13:11.490Z,11.95
2023-10-19T05:16:00.434Z,14.95
2023-10-19T05:18:47.898Z,10.98
2023-10-19T05:21:35.923Z,9.05
2023-10-19T05:24:23.203Z,10.77
2023-10-19T05:27:12.199Z,12.23
2023-10-19T05:32:51.249Z,8.55
2023-10-19T05:35:41.764Z,11.75
2023-10-19T05:38:29.096Z,8.75
2023-10-19T05:41:18.208Z,11.20
2023-10-19T05:44:05.836Z,9.00
2023-10-19T05:46:53.397Z,13.45
2023-10-19T05:49:40.798Z,9.60
2023-10-19T05:52:28.062Z,9.88
2023-10-19T05:55:16.690Z,7.40
2023-10-19T05:58:06.984Z,10.43
2023-10-19T06:00:54.369Z,12.38
2023-10-19T06:03:42.182Z,11.95
2023-10-19T06:06:29.612Z,11.38
2023-10-19T06:09:18.240Z,11.02
2023-10-19T06:12:05.773Z,12.40
2023-10-19T06:14:53.204Z,11.75
2023-10-19T06:17:41.879Z,11.20
2023-10-19T06:20:29.227Z,10.20
2023-10-19T06:23:16.447Z,10.50
2023-10-19T06:26:12.439Z,12.65
2023-10-19T06:29:00.592Z,10.25
2023-10-19T06:31:50.382Z,11.35
2023-10-19T06:34:37.781Z,10.90
2023-10-19T06:37:25.190Z,11.68
2023-10-19T06:40:16.237Z,13.93
2023-10-19T06:45:51.430Z,9.57
2023-10-19T06:48:39.375Z,13.07
2023-10-19T06:51:30.689Z,14.15
2023-10-19T06:54:18.095Z,14.25
2023-10-19T06:57:05.327Z,9.52
2023-10-19T06:59:53.826Z,14.27
2023-10-19T07:02:45.139Z,10.50
2023-10-19T07:05:32.471Z,11.57
2023-10-19T07:08:20.503Z,10.73
2023-10-19T07:11:08.478Z,10.52
2023-10-19T07:13:55.739Z,9.07
2023-10-19T07:16:43.153Z,8.75
2023-10-19T07:19:30.510Z,8.18
2023-10-19T07:22:18.306Z,9.50
2023-10-19T07:25:10.235Z,8.77
2023-10-19T07:28:01.414Z,8.27
2023-10-19T07:30:49.992Z,7.05
2023-10-19T07:33:40.049Z,8.25
2023-10-19T07:36:27.496Z,9.63
2023-10-19T07:39:20.269Z,8.77
2023-10-19T07:42:08.211Z,8.82
2023-10-19T07:44:55.591Z,7.97
2023-10-19T07:47:43.486Z,10.40
2023-10-19T07:50:30.918Z,8.05
2023-10-19T07:53:18.533Z,8.52
2023-10-19T07:56:05.942Z,7.22
2023-10-19T07:58:53.262Z,7.95
2023-10-19T08:01:40.967Z,8.82
2023-10-19T08:04:29.518Z,7.55
2023-10-19T08:07:18.403Z,9.40
2023-10-19T08:10:06.860Z,9.45
2023-10-19T08:12:54.328Z,5.45
2023-10-19T08:15:41.772Z,6.97
2023-10-19T08:18:31.746Z,6.65
2023-10-19T08:21:19.061Z,5.50
2023-10-19T08:24:06.531Z,5.32
2023-10-19T08:26:54.010Z,6.22
2023-10-19T08:29:41.297Z,6.80
2023-10-19T08:32:28.662Z,7.32
2023-10-19T08:35:29.446Z,6.78
2023-10-19T08:38:17.159Z,6.22
2023-10-19T08:41:04.940Z,5.22
2023-10-19T08:43:52.335Z,4.20
2023-10-19T08:46:44.463Z,5.88
2023-10-19T08:49:32.385Z,5.03
2023-10-19T08:52:25.613Z,5.07
2023-10-19T08:55:14.266Z,16.13
2023-10-19T08:58:02.172Z,5.50
2023-10-19T09:00:55.500Z,7.57
2023-10-19T09:03:43.958Z,5.43
2023-10-19T09:06:32.063Z,4.80
2023-10-19T09:09:20.744Z,3.83
2023-10-19T09:12:09.361Z,3.60
2023-10-19T09:14:56.585Z,7.13
2023-10-19T09:17:44.677Z,6.07
2023-10-19T09:20:32.404Z,4.10
2023-10-19T09:23:25.066Z,4.38
2023-10-19T09:26:14.191Z,3.67
2023-10-19T09:29:01.446Z,4.30
2023-10-19T09:31:50.818Z,4.88
2023-10-19T09:34:39.565Z,5.20
2023-10-19T09:37:27.649Z,4.85
2023-10-19T09:40:15.122Z,4.35
2023-10-19T09:43:08.147Z,4.50
2023-10-19T09:46:01.719Z,2.20
2023-10-19T09:48:50.025Z,4.03
2023-10-19T09:51:37.584Z,3.85
2023-10-19T09:55:00.091Z,3.03
2023-10-19T09:57:55.595Z,3.85
2023-10-19T10:00:52.537Z,4.22
2023-10-19T10:03:53.735Z,5.82
2023-10-19T10:06:54.985Z,3.72
2023-10-19T10:09:46.363Z,4.63
2023-10-19T10:12:36.122Z,4.13
2023-10-19T10:15:39.564Z,2.92
2023-10-19T10:18:30.935Z,2.65
2023-10-19T10:21:25.127Z,2.35
2023-10-19T10:24:13.152Z,3.75
2023-10-19T10:27:04.554Z,3.80
2023-10-19T10:30:07.784Z,1.52
2023-10-19T10:33:00.709Z,3.00
2023-10-19T10:35:48.008Z,2.20
2023-10-19T10:38:38.697Z,2.97
2023-10-19T10:41:30.014Z,3.03
2023-10-19T10:44:17.270Z,2.13
2023-10-19T10:47:06.019Z,2.70
2023-10-19T10:49:55.864Z,3.13
2023-10-19T10:52:44.673Z,2.65
2023-10-19T10:55:33.831Z,2.30
2023-10-19T10:58:21.392Z,2.55
2023-10-19T11:01:08.619Z,2.92
2023-10-19T11:04:12.203Z,1.42
2023-10-19T11:06:59.532Z,2.20
2023-10-19T11:09:49.449Z,2.83
2023-10-19T11:12:37.178Z,1.73
2023-10-19T11:15:24.415Z,1.90
2023-10-19T11:18:12.461Z,4.15
2023-10-19T11:21:01.514Z,3.13
2023-10-19T11:23:50.249Z,4.20
2023-10-19T11:26:41.749Z,3.35
2023-10-19T11:29:28.956Z,3.72
2023-10-19T11:32:16.150Z,4.32
2023-10-19T11:35:03.533Z,3.65
2023-10-19T11:37:52.125Z,4.40
2023-10-19T11:40:39.661Z,2.58
2023-10-19T11:43:27.239Z,3.38
2023-10-19T11:46:26.440Z,4.07
2023-10-19T11:49:13.924Z,4.20
2023-10-19T11:52:01.225Z,2.95
2023-10-19T11:54:48.603Z,3.15
2023-10-19T11:57:37.136Z,2.50
2023-10-19T12:00:26.162Z,3.47
2023-10-19T12:03:16.100Z,3.28
2023-10-19T12:06:07.452Z,5.03
2023-10-19T12:08:57.120Z,3.47
2023-10-19T12:11:48.420Z,4.15
2023-10-19T12:14:38.048Z,4.13
2023-10-19T12:17:27.964Z,4.75
2023-10-19T12:20:17.423Z,4.25
2023-10-19T12:23:06.914Z,2.88
2023-10-19T12:25:57.894Z,7.55
2023-10-19T12:28:49.631Z,5.47
2023-10-19T12:31:40.804Z,5.03
2023-10-19T12:34:31.860Z,5.13
2023-10-19T12:37:19.577Z,6.63
2023-10-19T12:40:27.310Z,4.82
2023-10-19T12:43:16.043Z,7.15
2023-10-19T12:46:03.304Z,6.03
2023-10-19T12:48:50.648Z,9.45
2023-10-19T12:51:39.909Z,6.05
2023-10-19T12:54:29.324Z,4.25
2023-10-19T12:57:18.147Z,5.78
2023-10-19T13:00:25.349Z,7.03
2023-10-19T13:03:23.281Z,5.10
2023-10-19T13:06:10.716Z,5.30
2023-10-19T13:08:59.277Z,5.10
2023-10-19T13:11:46.930Z,6.00
2023-10-19T13:14:35.595Z,5.63
2023-10-19T13:17:23.188Z,4.82
2023-10-19T13:20:19.126Z,3.65
2023-10-19T13:23:12.636Z,4.53
2023-10-19T13:26:16.939Z,3.42
2023-10-19T13:29:04.948Z,4.70
2023-10-19T13:31:53.435Z,4.28
2023-10-19T13:34:42.246Z,6.03
2023-10-19T13:37:31.914Z,5.13
2023-10-19T13:40:21.074Z,4.75
2023-10-19T13:43:09.802Z,5.45
2023-10-19T13:45:57.467Z,3.75
2023-10-19T13:48:45.491Z,4.03
2023-10-19T13:51:32.809Z,5.13
2023-10-19T13:54:22.142Z,3.63
2023-10-19T13:57:09.473Z,4.45
2023-10-19T13:59:57.770Z,2.97
2023-10-19T14:02:45.363Z,5.13
2023-10-19T14:05:51.547Z,4.53
2023-10-19T14:08:38.870Z,3.15
2023-10-19T14:11:26.150Z,3.28
2023-10-19T14:14:13.321Z,5.15
2023-10-19T14:17:01.820Z,5.45
2023-10-19T14:19:49.186Z,3.90
2023-10-19T14:22:37.608Z,5.13
2023-10-19T14:25:25.201Z,3.08
2023-10-19T14:28:13.561Z,1.92
2023-10-19T14:31:01.174Z,4.07
2023-10-19T14:33:48.434Z,2.80
2023-10-19T14:36:35.774Z,3.80
2023-10-19T14:39:23.065Z,2.42
2023-10-19T14:42:11.489Z,3.40
2023-10-19T14:44:58.947Z,4.88
2023-10-19T14:47:51.671Z,3.25
2023-10-19T14:50:39.312Z,3.33
2023-10-19T14:53:26.809Z,3.88
2023-10-19T14:56:14.411Z,4.72
2023-10-19T14:59:01.701Z,4.28
2023-10-19T15:01:48.948Z,5.25
2023-10-19T15:04:39.470Z,2.58
2023-10-19T15:07:27.638Z,2.15
2023-10-19T15:10:15.368Z,2.60
2023-10-19T15:13:04.547Z,1.73
2023-10-19T15:15:52.607Z,1.33
2023-10-19T15:18:41.291Z,2.78
2023-10-19T15:21:29.017Z,2.22
2023-10-19T15:24:17.495Z,2.42
2023-10-19T15:27:04.887Z,2.00
2023-10-19T15:29:52.379Z,2.10
2023-10-19T15:32:42.887Z,2.55
2023-10-19T15:35:30.388Z,3.17
2023-10-19T15:38:17.816Z,2.22
2023-10-19T15:41:05.460Z,2.72
2023-10-19T15:43:53.195Z,2.03
2023-10-19T15:46:40.852Z,2.67
2023-10-19T15:49:28.313Z,2.25
2023-10-19T15:52:20.437Z,3.15
2023-10-19T15:55:07.992Z,1.67
2023-10-19T15:57:56.334Z,2.08
2023-10-19T16:00:43.772Z,6.05
2023-10-19T16:03:31.123Z,2.67
2023-10-19T16:06:18.438Z,2.45
2023-10-19T16:09:05.731Z,2.92
2023-10-19T16:11:53.131Z,2.67
2023-10-19T16:14:43.687Z,2.17
2023-10-19T16:17:30.954Z,2.30
2023-10-19T16:20:18.429Z,3.72
2023-10-19T16:23:06.592Z,2.15
2023-10-19T16:26:04.782Z,3.88
2023-10-19T16:28:52.316Z,2.67
2023-10-19T16:31:39.733Z,2.50
2023-10-19T16:34:27.135Z,3.08
2023-10-19T16:37:14.367Z,4.30
2023-10-19T16:40:01.935Z,3.45
2023-10-19T16:42:49.192Z,3.33
2023-10-19T16:45:37.985Z,4.70
2023-10-19T16:48:25.517Z,3.70
2023-10-19T16:51:12.854Z,3.80
2023-10-19T16:54:00.161Z,4.07
2023-10-19T16:56:48.309Z,5.22
2023-10-19T16:59:36.902Z,4.00
2023-10-19T17:02:25.899Z,4.03
2023-10-19T17:05:13.924Z,4.85
2023-10-19T17:08:01.325Z,5.25
2023-10-19T17:10:48.551Z,5.20
2023-10-19T17:13:37.031Z,2.92
2023-10-19T17:16:25.768Z,3.45
2023-10-19T17:19:13.145Z,4.22
2023-10-19T17:22:00.933Z,4.10
2023-10-19T17:24:49.922Z,2.60
2023-10-19T17:27:37.098Z,6.32
2023-10-19T17:30:25.635Z,4.47
2023-10-19T17:33:14.205Z,3.70
2023-10-19T17:36:01.867Z,3.72
2023-10-19T17:38:49.296Z,3.30
2023-10-19T17:41:36.461Z,3.40
2023-10-19T17:44:24.662Z,3.50
2023-10-19T17:47:12.157Z,2.95
2023-10-19T17:50:04.885Z,3.25
2023-10-19T17:52:52.918Z,2.22
2023-10-19T17:55:40.330Z,2.25
2023-10-19T17:58:27.737Z,2.10
2023-10-19T18:01:15.276Z,1.52
2023-10-19T18:04:03.935Z,2.65
2023-10-19T18:06:52.409Z,1.80
2023-10-19T18:09:40.000Z,2.38
2023-10-19T18:12:27.820Z,3.00
2023-10-19T18:15:21.392Z,3.00
2023-10-19T18:18:09.359Z,2.03
2023-10-19T18:20:58.407Z,2.53
2023-10-19T18:23:47.912Z,1.70
2023-10-19T18:26:38.708Z,4.43
2023-10-19T18:29:26.616Z,2.50
2023-10-19T18:32:14.007Z,2.15
2023-10-19T18:35:01.539Z,1.98
2023-10-19T18:37:52.965Z,1.73
2023-10-19T18:40:42.048Z,2.75
2023-10-19T18:43:30.345Z,2.95
2023-10-19T18:46:18.116Z,2.03
2023-10-19T18:49:11.809Z,2.95
2023-10-19T18:51:59.386Z,2.30
2023-10-19T18:54:47.003Z,3.20
2023-10-19T18:57:34.694Z,5.93
2023-10-19T19:00:25.801Z,3.63
2023-10-19T19:03:14.821Z,2.42
2023-10-19T19:06:12.233Z,3.65
2023-10-19T19:08:59.975Z,4.13
2023-10-19T19:11:47.301Z,3.60
2023-10-19T19:14:34.686Z,4.75
2023-10-19T19:17:23.140Z,2.40
2023-10-19T19:20:13.009Z,2.58
2023-10-19T19:23:01.000Z,2.88
2023-10-19T19:25:50.912Z,3.58
2023-10-19T19:28:43.985Z,3.22
2023-10-19T19:31:31.606Z,4.72
2023-10-19T19:34:18.885Z,3.15
2023-10-19T19:37:06.604Z,4.28
2023-10-19T19:39:53.851Z,7.15
2023-10-19T19:42:44.916Z,8.40
2023-10-19T19:48:28.286Z,3.72
2023-10-19T19:51:17.786Z,5.63
2023-10-19T19:54:05.556Z,7.68
2023-10-19T19:56:53.014Z,10.55
2023-10-19T19:59:40.279Z,7.70
2023-10-19T20:02:27.854Z,8.82
2023-10-19T20:05:17.895Z,8.25
2023-10-19T20:08:06.585Z,8.60
2023-10-19T20:10:54.900Z,8.70
2023-10-19T20:13:42.374Z,7.55
2023-10-19T20:16:29.615Z,9.98
2023-10-19T20:19:18.114Z,9.40
2023-10-19T20:22:05.854Z,8.40
2023-10-19T20:24:53.396Z,9.35
2023-10-19T20:27:45.137Z,7.93
2023-10-19T20:30:34.722Z,7.75
2023-10-19T20:33:23.432Z,12.23
2023-10-19T20:36:10.735Z,8.25
2023-10-19T20:39:01.060Z,9.20
2023-10-19T20:41:52.448Z,10.98
2023-10-19T20:44:42.712Z,10.57
2023-10-19T20:47:30.080Z,8.38
2023-10-19T20:50:17.686Z,8.32
2023-10-19T20:53:05.442Z,9.80
2023-10-19T20:55:52.792Z,9.60
2023-10-19T20:58:40.189Z,9.98
2023-10-19T21:01:27.501Z,8.88
2023-10-19T21:04:15.047Z,9.85
2023-10-19T21:07:02.439Z,9.73
2023-10-19T21:09:50.062Z,11.85
2023-10-19T21:12:41.086Z,12.27
2023-10-19T21:18:15.790Z,10.43
2023-10-19T21:21:04.356Z,11.93
2023-10-19T21:23:54.836Z,12.57
2023-10-19T21:26:42.779Z,11.73
2023-10-19T21:29:30.929Z,12.45
2023-10-19T21:32:19.733Z,12.43
2023-10-19T21:35:07.462Z,12.52
2023-10-19T21:37:55.131Z,11.23
2023-10-19T21:40:43.718Z,13.90
2023-10-19T21:43:30.898Z,13.77
2023-10-19T21:46:18.349Z,14.05
2023-10-19T21:49:05.764Z,12.20
2023-10-19T21:51:53.246Z,14.15
2023-10-19T21:54:40.485Z,11.93
2023-10-19T21:57:29.794Z,13.68
2023-10-19T22:00:27.936Z,11.68
2023-10-19T22:03:15.593Z,13.68
2023-10-19T22:06:03.097Z,15.02
2023-10-19T22:08:50.617Z,16.20
2023-10-19T22:11:38.004Z,14.00
2023-10-19T22:14:25.279Z,15.70
2023-10-19T22:17:12.629Z,12.70
2023-10-19T22:20:01.504Z,11.10
2023-10-19T22:22:49.122Z,10.30
2023-10-19T22:25:37.578Z,8.73
2023-10-19T22:28:24.931Z,9.82
2023-10-19T22:31:12.430Z,9.23
2023-10-19T22:33:59.658Z,8.73
2023-10-19T22:36:47.211Z,9.95
2023-10-19T22:39:34.603Z,7.85
2023-10-19T22:42:22.100Z,8.15
2023-10-19T22:45:13.748Z,8.52
2023-10-19T22:48:03.798Z,8.73
2023-10-19T22:50:51.445Z,9.95
2023-10-19T22:53:42.696Z,11.80
2023-10-19T22:56:29.947Z,11.20
2023-10-19T22:59:17.163Z,9.68
2023-10-19T23:02:05.826Z,8.00
2023-10-19T23:04:56.492Z,7.20
2023-10-19T23:07:44.054Z,10.90
2023-10-19T23:10:33.149Z,6.70
2023-10-19T23:13:21.986Z,7.35
2023-10-19T23:16:09.589Z,8.65
2023-10-19T23:18:57.949Z,6.30
2023-10-19T23:21:48.076Z,6.13
2023-10-19T23:24:35.337Z,5.33
2023-10-19T23:27:25.688Z,7.70
2023-10-19T23:30:14.493Z,4.55
2023-10-19T23:33:05.279Z,5.40
2023-10-19T23:35:52.615Z,4.25
2023-10-19T23:38:41.129Z,4.70
2023-10-19T23:41:28.473Z,7.10
2023-10-19T23:44:16.879Z,5.15
2023-10-19T23:47:04.602Z,4.38
2023-10-19T23:49:52.068Z,5.47
2023-10-19T23:52:39.810Z,4.18
2023-10-19T23:55:27.289Z,4.60
2023-10-19T23:58:15.633Z,5.50
